Time;durP1;ratioP1;P1;durP2;ratioP2;P2;SDS_P1;SDS_P2;PMS_P1;PMS_P2;Temp;Humidity;BMP_temperature;BMP_pressure;BME280_temperature;BME280_humidity;BME280_pressure;Samples;Min_cycle;Max_cycle;Signal;HPM_P1;HPM_P2
2021/04/22 00:01:20;;;;;;;2.08;1.17;;;13.00;80.70;;;;;;4932982;28;98265;-53
2021/04/22 00:03:50;;;;;;;1.50;0.95;;;13.00;81.20;;;;;;4934066;28;95590;-54
2021/04/22 00:06:20;;;;;;;1.35;1.05;;;13.00;80.60;;;;;;4933425;28;95747;-53
2021/04/22 00:08:51;;;;;;;1.05;0.95;;;13.00;80.50;;;;;;4935663;28;95871;-51
2021/04/22 00:11:23;;;;;;;1.60;1.00;;;13.00;80.50;;;;;;4932509;28;95841;-50
2021/04/22 00:13:55;;;;;;;2.22;0.90;;;13.00;80.50;;;;;;4930552;28;95778;-48
2021/04/22 00:16:25;;;;;;;1.63;1.10;;;13.00;80.60;;;;;;4928857;28;95889;-50
2021/04/22 00:18:56;;;;;;;1.25;0.77;;;13.10;80.60;;;;;;4934962;28;95933;-56
2021/04/22 00:21:26;;;;;;;2.27;1.20;;;13.10;81.20;;;;;;4935770;28;95531;-50
2021/04/22 00:23:57;;;;;;;1.55;1.20;;;13.10;80.60;;;;;;4966966;28;98088;-50
2021/04/22 00:26:28;;;;;;;2.75;1.33;;;13.10;80.50;;;;;;4963622;28;95583;-51
2021/04/22 00:28:59;;;;;;;1.13;1.03;;;13.10;80.50;;;;;;4931202;28;95822;-51
2021/04/22 00:31:29;;;;;;;3.17;1.08;;;13.10;80.50;;;;;;4927221;28;95952;-52
2021/04/22 00:33:58;;;;;;;0.88;0.88;;;13.10;80.50;;;;;;4937253;28;95656;-50
2021/04/22 00:36:28;;;;;;;2.25;1.17;;;13.10;80.50;;;;;;4932371;28;95681;-52
2021/04/22 00:38:58;;;;;;;1.92;1.10;;;13.10;80.50;;;;;;4930844;28;95937;-52
2021/04/22 00:41:28;;;;;;;1.75;1.30;;;13.10;80.50;;;;;;4935573;28;95271;-52
2021/04/22 00:44:00;;;;;;;2.87;1.17;;;13.10;80.50;;;;;;4933015;28;95447;-49
2021/04/22 00:46:31;;;;;;;1.17;0.80;;;13.10;80.50;;;;;;4927817;28;95846;-53
2021/04/22 00:49:01;;;;;;;2.23;1.30;;;13.20;80.60;;;;;;4933062;28;98053;-50
2021/04/22 00:51:31;;;;;;;1.48;1.30;;;13.10;80.60;;;;;;4931718;28;95381;-51
2021/04/22 00:54:02;;;;;;;1.20;1.10;;;13.20;80.60;;;;;;4931972;28;96126;-52
2021/04/22 00:56:32;;;;;;;1.70;1.00;;;13.20;80.50;;;;;;4939587;28;96006;-53
2021/04/22 00:59:01;;;;;;;1.85;1.30;;;13.20;80.60;;;;;;4932718;28;96726;-52
2021/04/22 01:01:31;;;;;;;1.58;1.10;;;13.20;80.50;;;;;;4928153;28;95690;-53
2021/04/22 01:04:03;;;;;;;1.17;1.00;;;13.30;80.50;;;;;;4929100;28;95618;-50
2021/04/22 01:06:33;;;;;;;1.70;0.90;;;13.30;80.60;;;;;;4931576;28;95387;-53
2021/04/22 01:09:05;;;;;;;2.15;1.20;;;13.30;80.40;;;;;;4930823;28;95785;-53
2021/04/22 01:11:36;;;;;;;1.75;0.90;;;13.30;80.50;;;;;;4934101;28;95309;-52
2021/04/22 01:14:07;;;;;;;1.27;1.00;;;13.30;80.40;;;;;;4935680;28;95894;-52
2021/04/22 01:16:37;;;;;;;1.15;0.80;;;13.30;80.40;;;;;;4936280;28;95756;-50
2021/04/22 01:19:08;;;;;;;1.25;1.00;;;13.40;80.40;;;;;;4931370;28;95906;-54
2021/04/22 01:21:41;;;;;;;2.40;0.98;;;13.40;80.40;;;;;;4930004;28;95701;-54
2021/04/22 01:24:12;;;;;;;1.02;0.85;;;13.40;80.40;;;;;;4938876;28;95377;-54
2021/04/22 01:26:43;;;;;;;1.23;0.95;;;13.40;80.30;;;;;;4947173;28;95781;-54
2021/04/22 01:29:14;;;;;;;1.95;1.30;;;13.40;80.20;;;;;;4944667;28;96577;-55
2021/04/22 01:31:44;;;;;;;1.77;1.23;;;13.40;80.20;;;;;;4934370;28;98762;-52
2021/04/22 01:34:14;;;;;;;2.45;0.93;;;13.40;80.20;;;;;;4932200;28;95360;-52
2021/04/22 01:36:47;;;;;;;1.20;0.98;;;13.50;80.20;;;;;;4931464;28;95692;-55
2021/04/22 01:39:17;;;;;;;1.35;0.82;;;13.50;80.10;;;;;;4939477;28;95869;-50
2021/04/22 01:41:48;;;;;;;1.40;1.30;;;13.50;80.10;;;;;;4946335;28;95381;-50
2021/04/22 01:44:18;;;;;;;1.25;1.05;;;13.60;80.20;;;;;;4936954;28;95458;-50
2021/04/22 01:46:48;;;;;;;1.55;1.30;;;13.60;80.10;;;;;;4929227;28;96204;-56
2021/04/22 01:49:18;;;;;;;0.85;0.85;;;13.60;80.10;;;;;;4931376;28;95983;-58
2021/04/22 01:51:47;;;;;;;2.38;1.23;;;13.60;80.10;;;;;;4932426;28;98708;-57
2021/04/22 01:54:17;;;;;;;1.33;1.23;;;13.70;80.00;;;;;;4929832;28;95749;-56
2021/04/22 01:56:49;;;;;;;1.38;0.77;;;13.70;80.00;;;;;;4930756;28;100726;-57
2021/04/22 01:59:19;;;;;;;1.55;1.02;;;13.70;79.90;;;;;;4941011;28;99149;-52
2021/04/22 02:01:49;;;;;;;2.05;1.20;;;13.70;79.80;;;;;;4928651;28;95865;-54
2021/04/22 02:04:18;;;;;;;1.98;1.20;;;13.70;79.80;;;;;;4931432;28;95572;-50
2021/04/22 02:06:48;;;;;;;0.80;0.77;;;13.70;79.90;;;;;;4943108;28;95754;-56
2021/04/22 02:09:18;;;;;;;1.17;1.08;;;13.70;79.80;;;;;;4931482;28;95964;-54
2021/04/22 02:11:49;;;;;;;1.42;1.02;;;13.80;79.80;;;;;;4928418;28;95399;-51
2021/04/22 02:14:21;;;;;;;3.72;1.50;;;13.80;79.70;;;;;;4935869;28;95897;-56
2021/04/22 02:16:54;;;;;;;1.70;0.90;;;13.80;79.80;;;;;;4931950;28;97961;-55
2021/04/22 02:19:26;;;;;;;1.48;0.85;;;13.80;79.80;;;;;;4941833;28;95999;-51
2021/04/22 02:21:58;;;;;;;1.10;1.00;;;13.80;79.80;;;;;;4939631;28;95521;-51
2021/04/22 02:24:30;;;;;;;3.47;1.10;;;13.80;79.80;;;;;;4931398;28;95192;-53
2021/04/22 02:27:02;;;;;;;1.23;0.88;;;13.80;79.70;;;;;;4930140;28;95575;-56
2021/04/22 02:29:34;;;;;;;1.95;1.10;;;13.80;79.70;;;;;;4930291;28;96487;-57
2021/04/22 02:32:05;;;;;;;1.83;1.08;;;13.90;79.80;;;;;;4932294;28;97121;-55
2021/04/22 02:34:35;;;;;;;0.80;0.80;;;13.90;79.80;;;;;;4934745;28;95301;-57
2021/04/22 02:37:07;;;;;;;1.63;1.00;;;13.90;79.80;;;;;;4931163;28;95252;-55
2021/04/22 02:39:38;;;;;;;1.23;1.20;;;13.90;79.80;;;;;;4961049;28;96473;-57
2021/04/22 02:42:09;;;;;;;0.80;0.70;;;13.90;79.90;;;;;;4934061;28;95747;-57
2021/04/22 02:44:40;;;;;;;1.58;1.00;;;13.90;79.80;;;;;;4932417;28;95917;-56
2021/04/22 02:47:10;;;;;;;1.95;1.00;;;13.90;79.80;;;;;;4929870;28;96043;-56
2021/04/22 02:49:39;;;;;;;1.45;1.10;;;13.90;79.70;;;;;;4932928;28;95944;-56
2021/04/22 02:52:08;;;;;;;2.47;1.20;;;14.00;79.90;;;;;;4964647;28;95487;-56
2021/04/22 02:54:39;;;;;;;1.80;1.30;;;13.90;79.80;;;;;;4934419;28;96092;-60
2021/04/22 02:57:10;;;;;;;1.00;1.00;;;13.90;79.80;;;;;;4965049;28;97152;-58
2021/04/22 02:59:40;;;;;;;1.88;1.20;;;13.90;79.90;;;;;;4936838;28;96469;-55
2021/04/22 03:02:10;;;;;;;1.20;1.02;;;13.90;79.80;;;;;;4928883;28;96108;-56
2021/04/22 03:04:41;;;;;;;0.80;0.80;;;14.00;79.90;;;;;;4932574;28;95493;-56
2021/04/22 03:07:11;;;;;;;1.33;0.98;;;14.00;79.80;;;;;;4964452;28;95863;-54
2021/04/22 03:09:42;;;;;;;1.10;0.90;;;14.00;79.80;;;;;;4942212;28;96063;-55
2021/04/22 03:12:13;;;;;;;1.23;1.02;;;14.00;79.80;;;;;;4953183;28;95357;-55
2021/04/22 03:14:44;;;;;;;2.28;1.17;;;14.00;79.90;;;;;;4938735;28;95662;-53
2021/04/22 03:17:15;;;;;;;2.77;0.80;;;14.00;79.80;;;;;;4960463;28;98816;-57
2021/04/22 03:19:45;;;;;;;1.23;1.13;;;14.00;79.80;;;;;;4931709;28;100845;-55
2021/04/22 03:22:17;;;;;;;1.40;1.30;;;14.00;79.80;;;;;;4934664;28;95776;-54
2021/04/22 03:24:49;;;;;;;1.13;0.80;;;14.10;79.80;;;;;;4938150;28;95866;-53
2021/04/22 03:27:20;;;;;;;1.15;0.77;;;14.10;79.90;;;;;;4934009;28;95711;-57
2021/04/22 03:29:50;;;;;;;0.80;0.80;;;14.10;79.80;;;;;;4962169;28;96590;-56
2021/04/22 03:32:20;;;;;;;0.75;0.75;;;14.10;79.80;;;;;;4934951;28;96018;-56
2021/04/22 03:34:50;;;;;;;1.33;1.17;;;14.10;79.80;;;;;;4930402;28;95352;-55
2021/04/22 03:37:21;;;;;;;1.03;0.90;;;14.10;79.80;;;;;;4933204;28;96207;-54
2021/04/22 03:39:51;;;;;;;1.50;1.10;;;14.10;79.80;;;;;;4945154;28;95892;-56
2021/04/22 03:42:21;;;;;;;1.38;1.13;;;14.10;79.80;;;;;;4938081;28;95679;-53
2021/04/22 03:44:51;;;;;;;1.55;1.30;;;14.10;79.70;;;;;;4933352;28;95510;-55
2021/04/22 03:47:20;;;;;;;0.82;0.80;;;14.10;79.70;;;;;;4928290;28;95821;-52
2021/04/22 03:49:50;;;;;;;1.88;1.10;;;14.20;79.70;;;;;;4930823;28;96173;-54
2021/04/22 03:52:21;;;;;;;0.70;0.70;;;14.10;79.80;;;;;;4930060;28;103207;-55
2021/04/22 03:54:52;;;;;;;1.13;0.93;;;14.20;79.70;;;;;;4933086;28;95828;-57
2021/04/22 03:57:24;;;;;;;1.48;1.02;;;14.20;79.70;;;;;;4962709;28;98782;-57
2021/04/22 03:59:54;;;;;;;0.70;0.70;;;14.20;79.70;;;;;;4932834;28;95884;-56
2021/04/22 04:02:25;;;;;;;1.07;1.00;;;14.20;79.70;;;;;;4929634;28;95345;-54
2021/04/22 04:04:55;;;;;;;2.13;1.50;;;14.20;79.70;;;;;;4931918;28;95718;-55
2021/04/22 04:07:26;;;;;;;1.07;0.80;;;14.20;79.70;;;;;;4930785;28;95880;-56
2021/04/22 04:09:57;;;;;;;1.60;1.00;;;14.20;79.70;;;;;;4931765;28;95822;-56
2021/04/22 04:12:28;;;;;;;0.88;0.88;;;14.20;79.70;;;;;;4932314;28;95832;-55
2021/04/22 04:14:59;;;;;;;2.90;1.10;;;14.20;79.70;;;;;;4933744;28;95702;-55
2021/04/22 04:17:30;;;;;;;2.03;0.90;;;14.20;79.60;;;;;;4934178;28;95914;-52
2021/04/22 04:20:01;;;;;;;0.70;0.70;;;14.20;79.70;;;;;;4932494;28;95901;-57
2021/04/22 04:22:32;;;;;;;1.42;0.90;;;14.30;79.80;;;;;;4933226;28;95300;-57
2021/04/22 04:25:03;;;;;;;1.75;0.93;;;14.20;79.70;;;;;;4931446;28;95657;-55
2021/04/22 04:27:33;;;;;;;0.90;0.80;;;14.30;79.70;;;;;;4933984;28;98210;-57
2021/04/22 04:30:06;;;;;;;1.77;0.80;;;14.30;79.60;;;;;;4932462;28;96581;-52
2021/04/22 04:32:41;;;;;;;0.77;0.77;;;14.30;79.60;;;;;;4936210;28;95517;-56
2021/04/22 04:35:13;;;;;;;1.92;0.98;;;14.30;79.60;;;;;;4932941;28;95729;-54
2021/04/22 04:37:44;;;;;;;0.85;0.70;;;14.30;79.60;;;;;;4931693;28;95533;-54
2021/04/22 04:40:16;;;;;;;0.88;0.88;;;14.30;79.60;;;;;;4931394;28;96463;-53
2021/04/22 04:42:47;;;;;;;0.88;0.68;;;14.40;80.20;;;;;;4929220;28;95776;-55
2021/04/22 04:45:19;;;;;;;0.85;0.70;;;14.30;79.50;;;;;;4934209;28;95771;-52
2021/04/22 04:47:50;;;;;;;2.58;1.15;;;14.40;79.70;;;;;;4944018;28;95442;-55
2021/04/22 04:50:21;;;;;;;1.15;1.02;;;14.40;79.60;;;;;;4932404;28;97744;-54
2021/04/22 04:52:56;;;;;;;2.35;1.08;;;14.40;79.50;;;;;;4929896;28;97748;-54
2021/04/22 04:55:26;;;;;;;2.50;0.90;;;14.40;79.40;;;;;;4932675;28;95343;-58
2021/04/22 04:57:56;;;;;;;0.82;0.82;;;14.40;79.40;;;;;;4929291;28;95220;-52
2021/04/22 05:00:26;;;;;;;1.83;1.33;;;14.40;79.40;;;;;;4940427;28;96084;-55
2021/04/22 05:02:56;;;;;;;0.88;0.88;;;14.50;79.50;;;;;;4931544;28;95793;-56
2021/04/22 05:05:28;;;;;;;1.38;0.90;;;14.50;79.40;;;;;;4931267;28;95552;-53
2021/04/22 05:07:58;;;;;;;1.33;0.77;;;14.50;79.40;;;;;;4932526;28;95702;-56
2021/04/22 05:10:29;;;;;;;2.00;1.40;;;14.50;79.40;;;;;;4933601;28;95850;-55
2021/04/22 05:13:01;;;;;;;1.23;0.90;;;14.50;79.40;;;;;;4931206;28;95921;-56
2021/04/22 05:15:31;;;;;;;1.15;0.98;;;14.50;79.30;;;;;;4924969;28;95192;-50
2021/04/22 05:18:00;;;;;;;0.95;0.80;;;14.50;79.40;;;;;;4931974;28;95302;-53
2021/04/22 05:20:30;;;;;;;1.10;1.00;;;14.50;79.30;;;;;;4932311;28;95873;-55
2021/04/22 05:23:01;;;;;;;1.45;1.15;;;14.50;79.30;;;;;;4941399;28;95586;-55
2021/04/22 05:25:32;;;;;;;1.23;0.77;;;14.50;79.30;;;;;;4933714;28;95594;-54
2021/04/22 05:28:03;;;;;;;1.13;1.02;;;14.50;79.40;;;;;;4932392;28;95379;-54
2021/04/22 05:30:33;;;;;;;1.52;1.40;;;14.60;79.40;;;;;;4930526;28;95980;-53
2021/04/22 05:33:03;;;;;;;0.98;0.90;;;14.50;79.30;;;;;;4930667;28;95403;-58
2021/04/22 05:35:33;;;;;;;2.40;1.25;;;14.50;79.40;;;;;;4934001;28;95364;-55
2021/04/22 05:38:05;;;;;;;1.38;1.00;;;14.60;79.40;;;;;;4931931;28;95225;-56
2021/04/22 05:40:37;;;;;;;1.55;1.10;;;14.50;79.40;;;;;;4960271;28;101147;-53
2021/04/22 05:43:08;;;;;;;;;;;14.60;79.40;;;;;;4932028;28;95161;-53
2021/04/22 05:45:38;;;;;;;1.10;0.80;;;14.50;79.40;;;;;;4935525;28;99315;-55
2021/04/22 05:48:08;;;;;;;0.85;0.80;;;14.60;79.40;;;;;;4939466;28;95707;-55
2021/04/22 05:50:38;;;;;;;1.60;1.05;;;14.60;80.00;;;;;;4933619;28;97010;-57
2021/04/22 05:53:09;;;;;;;1.15;0.90;;;14.60;79.50;;;;;;4931434;28;95646;-54
2021/04/22 05:55:40;;;;;;;1.20;1.00;;;14.60;79.40;;;;;;4930057;28;95791;-57
2021/04/22 05:58:10;;;;;;;1.38;0.73;;;14.60;79.40;;;;;;4932162;28;95240;-53
2021/04/22 06:00:40;;;;;;;1.00;0.90;;;14.60;79.30;;;;;;4938549;28;95921;-57
2021/04/22 06:03:10;;;;;;;0.98;0.82;;;14.60;79.40;;;;;;4930545;28;95856;-57
2021/04/22 06:05:41;;;;;;;0.70;0.65;;;14.60;79.40;;;;;;4928205;28;95521;-57
2021/04/22 06:08:12;;;;;;;0.82;0.80;;;14.60;79.40;;;;;;4932247;28;95668;-56
2021/04/22 06:10:43;;;;;;;1.90;1.00;;;14.60;79.50;;;;;;4930619;28;95875;-54
2021/04/22 06:13:14;;;;;;;1.30;1.05;;;14.60;79.40;;;;;;4932244;28;95971;-52
2021/04/22 06:15:44;;;;;;;1.08;1.00;;;14.60;79.40;;;;;;4944580;28;97448;-58
2021/04/22 06:18:15;;;;;;;1.50;0.98;;;14.60;79.40;;;;;;4937555;28;95315;-54
2021/04/22 06:20:45;;;;;;;0.80;0.80;;;14.60;79.50;;;;;;4933469;28;95854;-53
2021/04/22 06:23:31;;;;;;;1.67;0.98;;;14.60;79.50;;;;;;4934499;28;98701;-55
2021/04/22 06:26:01;;;;;;;1.17;0.60;;;14.60;79.40;;;;;;4934835;28;95836;-55
2021/04/22 06:28:32;;;;;;;1.58;1.20;;;14.60;79.50;;;;;;4936602;28;95896;-53
2021/04/22 06:31:03;;;;;;;1.83;0.98;;;14.60;79.50;;;;;;4931817;28;95937;-56
2021/04/22 06:33:34;;;;;;;1.20;1.10;;;14.60;79.50;;;;;;4937516;28;95403;-53
2021/04/22 06:36:05;;;;;;;0.98;0.88;;;14.60;79.40;;;;;;4934240;28;95642;-57
2021/04/22 06:38:37;;;;;;;2.20;0.90;;;14.60;79.40;;;;;;4931840;28;95327;-58
2021/04/22 06:41:07;;;;;;;2.63;1.27;;;14.60;79.50;;;;;;4933491;28;95843;-54
2021/04/22 06:43:38;;;;;;;2.67;1.20;;;14.70;79.50;;;;;;4936680;28;95254;-55
2021/04/22 06:46:07;;;;;;;2.60;1.40;;;14.70;79.60;;;;;;4932980;28;95523;-55
2021/04/22 06:48:37;;;;;;;4.10;1.80;;;14.60;79.40;;;;;;4938464;28;95624;-52
2021/04/22 06:51:08;;;;;;;2.70;1.67;;;14.60;79.40;;;;;;4933464;28;95926;-53
2021/04/22 06:53:40;;;;;;;2.90;1.55;;;14.60;79.50;;;;;;4931797;28;95653;-54
2021/04/22 06:56:11;;;;;;;3.95;1.80;;;14.60;79.50;;;;;;4932784;28;95311;-54
2021/04/22 06:58:40;;;;;;;1.17;0.98;;;14.60;79.50;;;;;;4940487;28;95761;-56
2021/04/22 07:01:10;;;;;;;2.80;1.40;;;14.60;79.60;;;;;;4930112;28;95894;-56
2021/04/22 07:03:39;;;;;;;1.25;0.95;;;14.60;79.50;;;;;;4933693;28;96021;-52
2021/04/22 07:06:10;;;;;;;2.42;1.10;;;14.60;79.60;;;;;;4933663;28;95323;-55
2021/04/22 07:08:41;;;;;;;1.48;1.15;;;14.60;79.50;;;;;;4941535;28;95891;-57
2021/04/22 07:11:12;;;;;;;1.90;0.93;;;14.60;79.60;;;;;;4963942;28;96205;-57
2021/04/22 07:13:42;;;;;;;1.25;1.15;;;14.60;79.70;;;;;;4961669;28;95953;-55
2021/04/22 07:16:14;;;;;;;1.73;1.15;;;14.60;79.70;;;;;;4929419;28;97854;-53
2021/04/22 07:18:44;;;;;;;1.85;1.25;;;14.60;79.60;;;;;;4932962;28;95472;-54
2021/04/22 07:21:15;;;;;;;2.67;1.50;;;14.60;79.70;;;;;;4933685;28;96800;-54
2021/04/22 07:23:46;;;;;;;1.58;1.08;;;14.60;80.30;;;;;;4936736;28;95962;-57
2021/04/22 07:26:19;;;;;;;1.65;1.25;;;14.60;79.70;;;;;;4935827;28;95244;-55
2021/04/22 07:28:51;;;;;;;1.35;1.20;;;14.60;79.70;;;;;;4931042;28;95437;-56
2021/04/22 07:31:20;;;;;;;;;;;14.60;79.60;;;;;;4937866;28;95691;-55
2021/04/22 07:33:50;;;;;;;2.45;1.27;;;14.60;79.70;;;;;;4936807;28;95867;-53
2021/04/22 07:36:21;;;;;;;1.50;1.40;;;14.60;79.80;;;;;;4936081;28;95697;-56
2021/04/22 07:38:52;;;;;;;;;;;14.60;79.80;;;;;;4934552;28;95291;-54
2021/04/22 07:41:23;;;;;;;2.88;1.65;;;14.60;79.80;;;;;;4932723;28;95881;-57
2021/04/22 07:43:54;;;;;;;2.92;1.58;;;14.60;79.80;;;;;;4939959;28;95829;-56
2021/04/22 07:46:24;;;;;;;2.97;1.67;;;14.60;79.80;;;;;;4929187;28;95675;-52
2021/04/22 07:48:54;;;;;;;1.40;1.20;;;14.60;79.90;;;;;;4933701;28;96081;-52
2021/04/22 07:51:25;;;;;;;1.63;1.10;;;14.60;79.90;;;;;;4936718;28;101778;-56
2021/04/22 07:53:54;;;;;;;0.88;0.88;;;14.60;80.00;;;;;;4938418;28;96125;-55
2021/04/22 07:56:27;;;;;;;2.78;1.58;;;14.60;80.00;;;;;;4931457;28;95989;-55
2021/04/22 07:59:01;;;;;;;1.38;1.10;;;14.50;80.00;;;;;;4933419;28;95290;-56
2021/04/22 08:01:31;;;;;;;1.63;1.20;;;14.50;80.00;;;;;;4924822;28;95870;-56
2021/04/22 08:04:01;;;;;;;3.10;1.25;;;14.60;80.10;;;;;;4932306;28;96037;-53
2021/04/22 08:06:33;;;;;;;1.58;1.48;;;14.60;80.10;;;;;;4932220;28;95404;-56
2021/04/22 08:09:05;;;;;;;1.00;0.90;;;14.60;80.10;;;;;;4940588;28;95737;-58
2021/04/22 08:11:36;;;;;;;1.17;1.08;;;14.60;80.10;;;;;;4936347;28;95824;-53
2021/04/22 08:14:08;;;;;;;1.88;1.15;;;14.60;80.10;;;;;;4945018;28;95704;-56
2021/04/22 08:16:38;;;;;;;1.23;1.00;;;14.50;80.00;;;;;;4930840;28;97286;-54
2021/04/22 08:19:10;;;;;;;0.80;0.80;;;14.60;80.10;;;;;;4931549;28;95710;-54
2021/04/22 08:21:41;;;;;;;;;;;14.50;80.00;;;;;;4941431;28;96058;-54
2021/04/22 08:24:12;;;;;;;1.15;1.13;;;14.60;80.10;;;;;;4935729;28;95740;-53
2021/04/22 08:26:45;;;;;;;1.67;1.00;;;14.60;80.10;;;;;;4934476;28;95364;-53
2021/04/22 08:29:17;;;;;;;1.37;1.07;;;14.60;80.10;;;;;;4933297;28;95566;-57
2021/04/22 08:31:47;;;;;;;1.42;1.33;;;14.60;80.10;;;;;;4941362;28;96564;-54
2021/04/22 08:34:18;;;;;;;1.25;1.15;;;14.50;80.10;;;;;;4931681;28;95739;-54
2021/04/22 08:36:50;;;;;;;0.82;0.82;;;14.60;80.10;;;;;;4929478;28;96101;-56
2021/04/22 08:39:21;;;;;;;2.28;0.98;;;14.60;80.10;;;;;;4933111;28;95806;-56
2021/04/22 08:41:54;;;;;;;2.95;1.35;;;14.50;80.10;;;;;;4936245;28;96057;-52
2021/04/22 08:44:26;;;;;;;1.02;0.90;;;14.50;80.20;;;;;;4934856;28;95348;-55
2021/04/22 08:46:56;;;;;;;1.42;1.25;;;14.50;80.20;;;;;;4931948;28;95286;-55
2021/04/22 08:49:30;;;;;;;2.65;1.08;;;14.50;80.20;;;;;;4937506;28;95432;-54
2021/04/22 08:52:04;;;;;;;1.83;1.05;;;14.50;80.20;;;;;;4929201;28;96580;-57
2021/04/22 08:54:34;;;;;;;1.83;1.23;;;14.50;80.20;;;;;;4940654;28;95638;-52
2021/04/22 08:57:04;;;;;;;1.48;1.30;;;14.50;80.20;;;;;;4934808;28;95693;-56
2021/04/22 08:59:36;;;;;;;2.40;1.13;;;14.50;80.20;;;;;;4934943;28;95507;-56
2021/04/22 09:02:08;;;;;;;1.33;1.23;;;14.50;80.30;;;;;;4931509;28;98155;-54
2021/04/22 09:04:38;;;;;;;1.27;1.17;;;14.50;80.20;;;;;;4930011;28;95452;-54
2021/04/22 09:07:07;;;;;;;1.33;1.23;;;14.50;80.20;;;;;;4932093;28;96397;-57
2021/04/22 09:09:38;;;;;;;2.03;1.20;;;14.50;80.30;;;;;;4932349;28;95799;-56
2021/04/22 09:12:16;;;;;;;2.05;1.05;;;14.50;80.40;;;;;;4938491;28;95972;-56
2021/04/22 09:14:59;;;;;;;1.33;1.20;;;14.50;80.30;;;;;;4930389;28;95920;-57
2021/04/22 09:17:28;;;;;;;;;;;14.50;80.40;;;;;;4931543;28;95805;-52
2021/04/22 09:19:59;;;;;;;1.08;1.00;;;14.50;80.40;;;;;;4934356;28;95599;-57
2021/04/22 09:22:43;;;;;;;0.95;0.90;;;14.50;80.80;;;;;;4932284;28;95958;-56
2021/04/22 09:25:20;;;;;;;1.15;1.08;;;14.50;80.30;;;;;;4927834;28;95376;-58
2021/04/22 09:28:07;;;;;;;0.85;0.85;;;14.50;80.40;;;;;;4930888;28;95847;-56
2021/04/22 09:30:43;;;;;;;2.03;1.50;;;14.50;80.40;;;;;;4931919;28;95586;-55
2021/04/22 09:33:30;;;;;;;0.80;0.80;;;14.40;80.30;;;;;;4931658;28;96655;-57
2021/04/22 09:36:14;;;;;;;1.48;0.88;;;14.40;80.30;;;;;;4934865;28;95406;-54
2021/04/22 09:38:54;;;;;;;1.05;0.95;;;14.40;80.40;;;;;;4931797;28;95169;-55
2021/04/22 09:41:27;;;;;;;0.95;0.90;;;14.40;80.30;;;;;;4930350;28;95290;-51
2021/04/22 09:44:03;;;;;;;1.38;1.17;;;14.50;80.40;;;;;;4931448;28;97190;-56
2021/04/22 09:46:34;;;;;;;0.73;0.73;;;14.40;80.40;;;;;;4928555;28;95786;-52
2021/04/22 09:49:13;;;;;;;1.20;0.93;;;14.40;80.50;;;;;;4932586;28;95486;-56
2021/04/22 09:51:47;;;;;;;0.80;0.80;;;14.40;80.50;;;;;;4962278;28;96043;-51
2021/04/22 09:54:19;;;;;;;0.85;0.80;;;14.40;80.50;;;;;;4934060;28;95859;-53
2021/04/22 09:56:53;;;;;;;0.77;0.77;;;14.50;80.50;;;;;;4930253;28;95463;-58
2021/04/22 09:59:28;;;;;;;0.88;0.85;;;14.40;80.50;;;;;;4928361;28;95745;-58
2021/04/22 10:02:07;;;;;;;1.48;0.90;;;14.40;80.50;;;;;;4928490;28;97329;-52
2021/04/22 10:04:40;;;;;;;1.30;1.13;;;14.40;80.50;;;;;;4933693;28;96054;-54
2021/04/22 10:07:25;;;;;;;2.42;1.10;;;14.40;80.50;;;;;;4930691;28;95356;-54
2021/04/22 10:10:02;;;;;;;1.40;1.20;;;14.40;80.60;;;;;;4935432;28;96125;-56
2021/04/22 10:12:33;;;;;;;0.88;0.88;;;14.40;80.70;;;;;;4935840;28;95933;-54
2021/04/22 10:15:19;;;;;;;0.80;0.80;;;14.40;80.60;;;;;;4927431;28;96632;-53
2021/04/22 10:18:02;;;;;;;1.38;1.15;;;14.40;80.60;;;;;;4928841;28;102565;-53
2021/04/22 10:20:37;;;;;;;0.95;0.95;;;14.40;80.70;;;;;;4935453;28;95228;-56
2021/04/22 10:23:10;;;;;;;1.20;1.08;;;14.40;80.70;;;;;;4938120;28;95638;-53
2021/04/22 10:25:44;;;;;;;1.70;0.90;;;14.40;80.60;;;;;;4930237;28;95851;-57
2021/04/22 10:28:15;;;;;;;1.10;0.98;;;14.40;80.60;;;;;;4930450;28;95341;-56
2021/04/22 10:30:48;;;;;;;1.60;1.05;;;14.40;80.70;;;;;;4927686;28;96019;-51
2021/04/22 10:33:19;;;;;;;1.83;1.42;;;14.40;80.70;;;;;;4930870;28;95356;-54
2021/04/22 10:35:50;;;;;;;3.43;1.03;;;14.40;80.70;;;;;;4929333;28;96063;-52
2021/04/22 10:38:22;;;;;;;1.92;1.17;;;14.40;80.70;;;;;;4930421;28;96830;-56
2021/04/22 10:40:55;;;;;;;1.70;1.00;;;14.40;80.70;;;;;;4931459;28;100254;-53
2021/04/22 10:43:30;;;;;;;3.13;1.20;;;14.40;80.70;;;;;;4942718;28;95692;-53
2021/04/22 10:46:00;;;;;;;2.08;1.20;;;14.30;80.70;;;;;;4930532;28;95916;-53
2021/04/22 10:48:30;;;;;;;0.85;0.70;;;14.30;80.60;;;;;;4929649;28;95935;-52
2021/04/22 10:51:02;;;;;;;1.73;0.90;;;14.30;80.80;;;;;;4928825;28;95369;-53
2021/04/22 10:53:37;;;;;;;0.90;0.90;;;14.30;80.70;;;;;;4930796;28;95349;-54
2021/04/22 10:56:11;;;;;;;1.15;1.15;;;14.30;80.70;;;;;;4959947;28;98320;-52
2021/04/22 10:58:43;;;;;;;2.10;1.17;;;14.30;80.70;;;;;;4929432;28;95379;-53
2021/04/22 11:01:14;;;;;;;2.65;1.10;;;14.30;80.80;;;;;;4930179;28;98066;-52
2021/04/22 11:03:45;;;;;;;;;;;14.30;80.80;;;;;;4933439;28;95341;-52
2021/04/22 11:06:20;;;;;;;1.73;0.90;;;14.30;80.80;;;;;;4936744;28;95812;-51
2021/04/22 11:08:54;;;;;;;1.02;0.90;;;14.30;80.90;;;;;;4931634;28;95963;-52
2021/04/22 11:11:35;;;;;;;1.02;0.95;;;14.30;80.90;;;;;;4933736;28;95969;-52
2021/04/22 11:14:07;;;;;;;0.90;0.90;;;14.30;80.90;;;;;;4933216;28;95958;-54
2021/04/22 11:16:39;;;;;;;;;;;14.30;80.80;;;;;;4929396;28;96511;-53
2021/04/22 11:19:21;;;;;;;;;;;14.30;80.90;;;;;;4934454;28;95607;-51
2021/04/22 11:21:56;;;;;;;1.40;1.00;;;14.30;80.90;;;;;;4937564;28;95545;-52
2021/04/22 11:24:35;;;;;;;1.23;0.73;;;14.30;80.80;;;;;;4931476;28;96562;-53
2021/04/22 11:27:10;;;;;;;1.10;1.00;;;14.30;80.90;;;;;;4933485;28;96565;-57
2021/04/22 11:29:43;;;;;;;0.95;0.70;;;14.30;80.90;;;;;;4932270;28;99278;-53
2021/04/22 11:32:42;;;;;;;1.95;0.82;;;14.30;80.80;;;;;;4945748;28;95423;-53
2021/04/22 11:35:21;;;;;;;0.82;0.82;;;14.30;80.90;;;;;;4933668;28;95761;-52
2021/04/22 11:38:04;;;;;;;1.13;0.93;;;14.30;81.00;;;;;;4931464;28;96470;-55
2021/04/22 11:40:41;;;;;;;2.80;1.25;;;14.30;81.00;;;;;;4931788;28;95661;-53
2021/04/22 11:43:23;;;;;;;1.63;1.00;;;14.30;80.90;;;;;;4933837;28;95430;-57
2021/04/22 11:45:56;;;;;;;2.83;0.90;;;14.30;81.00;;;;;;4932058;28;96050;-52
2021/04/22 11:48:36;;;;;;;1.38;1.10;;;14.20;81.00;;;;;;4933102;28;95837;-57
2021/04/22 11:51:10;;;;;;;1.67;1.02;;;14.30;81.00;;;;;;4933584;28;95508;-53
2021/04/22 11:53:45;;;;;;;1.88;1.23;;;14.20;81.60;;;;;;4933443;28;95335;-53
2021/04/22 11:56:17;;;;;;;1.60;1.08;;;14.30;81.60;;;;;;4931472;28;95699;-53
2021/04/22 11:58:47;;;;;;;1.77;0.88;;;14.30;81.00;;;;;;4940435;28;95958;-55
2021/04/22 12:01:17;;;;;;;1.70;0.82;;;14.20;81.00;;;;;;4927769;28;95905;-55
2021/04/22 12:03:46;;;;;;;1.25;1.08;;;14.30;81.00;;;;;;4932694;28;95985;-54
2021/04/22 12:06:22;;;;;;;1.42;1.33;;;14.30;81.00;;;;;;4935093;28;95256;-51
2021/04/22 12:08:53;;;;;;;1.45;0.77;;;14.30;81.10;;;;;;4932826;28;95874;-51
2021/04/22 12:11:25;;;;;;;1.92;0.70;;;14.20;81.00;;;;;;4928941;28;95903;-53
2021/04/22 12:13:56;;;;;;;1.10;0.98;;;14.20;81.00;;;;;;4931490;28;95876;-52
2021/04/22 12:16:35;;;;;;;1.45;0.90;;;14.30;81.00;;;;;;4929634;28;95340;-52
2021/04/22 12:19:07;;;;;;;2.45;1.17;;;14.30;81.00;;;;;;4938599;28;96075;-56
2021/04/22 12:21:39;;;;;;;;;;;14.20;81.00;;;;;;4936743;28;102377;-51
2021/04/22 12:24:10;;;;;;;3.13;1.15;;;14.30;81.00;;;;;;4935302;28;95248;-54
2021/04/22 12:26:41;;;;;;;2.45;1.20;;;14.30;81.40;;;;;;4961272;28;95574;-52
2021/04/22 12:29:18;;;;;;;3.78;1.30;;;14.20;81.00;;;;;;4930609;28;95781;-51
2021/04/22 12:31:50;;;;;;;2.40;1.25;;;14.30;81.10;;;;;;4933823;28;95737;-54
2021/04/22 12:34:30;;;;;;;2.20;1.50;;;14.30;81.00;;;;;;4932477;28;95211;-52
2021/04/22 12:37:10;;;;;;;2.38;1.25;;;14.20;81.00;;;;;;4931493;28;95886;-54
2021/04/22 12:39:49;;;;;;;1.58;1.00;;;14.30;81.00;;;;;;4932312;28;95974;-57
2021/04/22 12:42:24;;;;;;;1.67;1.15;;;14.20;81.00;;;;;;4930836;28;95285;-57
2021/04/22 12:45:14;;;;;;;2.50;1.20;;;14.20;81.00;;;;;;4931435;28;95844;-52
2021/04/22 12:47:55;;;;;;;2.83;1.88;;;14.30;81.00;;;;;;4930169;28;95899;-55
2021/04/22 12:50:30;;;;;;;2.42;1.10;;;14.20;81.00;;;;;;4931720;28;96402;-55
2021/04/22 12:53:07;;;;;;;2.80;1.65;;;14.20;81.10;;;;;;4930706;28;95268;-56
2021/04/22 12:55:44;;;;;;;4.40;2.28;;;14.20;81.00;;;;;;4932168;28;95306;-54
2021/04/22 12:58:15;;;;;;;1.85;1.20;;;14.20;81.00;;;;;;4940635;28;96073;-55
2021/04/22 13:00:49;;;;;;;1.98;1.70;;;14.20;81.10;;;;;;4942226;28;95880;-53
2021/04/22 13:03:21;;;;;;;1.88;1.30;;;14.20;81.10;;;;;;4930979;28;96055;-55
2021/04/22 13:05:58;;;;;;;3.33;1.42;;;14.20;81.00;;;;;;4932457;28;95627;-53
2021/04/22 13:08:30;;;;;;;3.00;1.48;;;14.20;81.10;;;;;;4932315;28;95717;-54
2021/04/22 13:11:06;;;;;;;2.20;1.42;;;14.20;81.10;;;;;;4931840;28;95878;-52
2021/04/22 13:14:07;;;;;;;1.70;1.20;;;14.20;81.10;;;;;;4931299;28;95376;-51